Flight Track Log - Related Links

Times and Time Zones

All times are in EDT time to prevent confusion due to time zone crossing. See the N960DL flight status page for this flight to view local times or setup timezone preferences in your user account.

Time Position Orientation Groundspeed Altitude Reporting Facility
EDT Latitude Longitude Course Direction KTS MPH feet Rate Location/Type
Sun 07:40:05 AM 36.1333 -86.6833 255° West 154 177 1,100  Level Nashville TRACON
Sun 07:42:08 AM 36.1094 -86.7961 255° West 214 246 5,200 2,525 Climbing Memphis Center
Sun 07:43:08 AM 36.0456 -86.7475 148° Southeast 159 183 8,800 3,000 Climbing Memphis Center
Sun 07:44:08 AM 35.9769 -86.6864 144° Southeast 216 249 11,200 2,250 Climbing Memphis Center
Sun 07:45:08 AM 35.8978 -86.6183 145° Southeast 334 384 13,300 2,450 Climbing Memphis Center
Sun 07:46:08 AM 35.8014 -86.5331 144° Southeast 372 428 16,100 2,500 Climbing Memphis Center
Sun 07:47:08 AM 35.7053 -86.4558 147° Southeast 395 455 18,300 2,146 Climbing Memphis Center
Sun 07:48:39 AM 35.5306 -86.4144 169° South 422 486 21,500 1,987 Climbing Atlanta Center
Sun 07:49:39 AM 35.4103 -86.3806 167° South 435 501 23,300 1,700 Climbing Atlanta Center
Sun 07:50:39 AM 35.3119 -86.2836 141° Southeast 435 501 24,900 850 Climbing Atlanta Center
Sun 07:51:39 AM 35.2178 -86.1844 139° Southeast 443 510 25,000 50 Climbing Atlanta Center
Sun 07:52:39 AM 35.1336 -86.1011 141° Southeast 448 516 25,000  Level Atlanta Center
Sun 07:53:39 AM 35.0392 -86.0047 140° Southeast 442 509 25,000  Level Atlanta Center
Sun 07:54:39 AM 34.9486 -85.9139 141° Southeast 442 509 25,000  Level Atlanta Center
Sun 07:55:39 AM 34.8542 -85.8208 141° Southeast 442 509 25,000  Level Atlanta Center
Sun 07:56:39 AM 34.7636 -85.7303 141° Southeast 437 503 25,000 -100 Level Atlanta Center
Sun 07:57:39 AM 34.6708 -85.6350 140° Southeast 437 503 24,800 -900 Descending Atlanta Center
Sun 07:58:39 AM 34.5822 -85.5425 139° Southeast 437 503 23,200 -1,600 Descending Atlanta Center
Sun 07:59:39 AM 34.4917 -85.4528 141° Southeast 437 503 21,600 -1,700 Descending Atlanta Center
Sun 08:00:39 AM 34.4092 -85.3656 139° Southeast 421 484 19,800 -1,900 Descending Atlanta Center
Sun 08:01:39 AM 34.3286 -85.2839 140° Southeast 387 445 17,800 -2,100 Descending Atlanta Center
Sun 08:02:39 AM 34.2500 -85.2075 141° Southeast 368 423 15,600 -2,100 Descending Atlanta Center
Sun 08:03:39 AM 34.1672 -85.1233 140° Southeast 362 417 13,600 -1,300 Descending Atlanta Center
Sun 08:04:39 AM 34.1011 -85.0397 134° Southeast 352 405 13,000 -600 Descending Atlanta Center
Sun 08:05:39 AM 34.0433 -84.9689 135° Southeast 321 369 12,400 -800 Descending Atlanta Center
Sun 08:06:39 AM 33.9792 -84.9031 140° Southeast 305 351 11,400 -1,100 Descending Atlanta Center
Sun 08:07:39 AM 33.8978 -84.8997 178° South 283 326 10,200 -1,200 Descending Atlanta Center
Sun 08:08:39 AM 33.8206 -84.8964 178° South 278 320 9,000 -1,000 Descending Atlanta Center
Sun 08:09:39 AM 33.7497 -84.8783 168° South 273 314 8,200 -1,200 Descending Atlanta Center
Sun 08:10:39 AM 33.6789 -84.8600 168° South 273 314 6,600 -1,100 Descending Atlanta Center
Sun 08:11:39 AM 33.6353 -84.7972 130° Southeast 245 282 6,000 -591 Descending Atlanta Center
Sun 08:12:51 AM 33.6333 -84.7000 91° East 224 258 5,300 -955 Descending Atlanta TRACON
Sun 08:13:51 AM 33.6333 -84.6333 90° East 207 238 3,900 -1,158 Descending Atlanta TRACON
Sun 08:14:45 AM 33.6333 -84.5833 90° East 184 212 3,100 -900 Descending Atlanta TRACON
Sun 08:15:51 AM 33.6333 -84.5167 90° East 164 189 2,100 -810 Descending Atlanta TRACON
Sun 08:16:51 AM 33.6333 -84.4667 90° East 122 140 1,400 -700 Descending Atlanta TRACON

Login

Don't have an account? Register now (free) for customized features, flight alerts, and more!